createdAt,value
2017-12-05T00:00:06.282Z,81.40
2017-12-05T00:01:06.306Z,91.00
2017-12-05T00:02:06.222Z,86.40
2017-12-05T00:03:06.217Z,82.10
2017-12-05T00:04:06.175Z,84.70
2017-12-05T00:05:06.145Z,81.20
2017-12-05T00:06:06.132Z,84.50
2017-12-05T00:07:06.098Z,78.70
2017-12-05T00:08:06.147Z,76.20
2017-12-05T00:09:06.039Z,88.20
2017-12-05T00:10:06.055Z,80.60
2017-12-05T00:11:05.992Z,77.80
2017-12-05T00:12:06.994Z,83.50
2017-12-05T00:13:05.928Z,79.10
2017-12-05T00:14:05.981Z,80.10
2017-12-05T00:15:05.885Z,84.40
2017-12-05T00:16:05.887Z,82.30
2017-12-05T00:17:05.829Z,84.40
2017-12-05T00:18:05.903Z,87.90
2017-12-05T00:19:05.769Z,89.30
2017-12-05T00:20:05.814Z,95.90
2017-12-05T00:21:05.723Z,82.50
2017-12-05T00:22:06.744Z,89.90
2017-12-05T00:23:05.665Z,93.70
2017-12-05T00:24:05.729Z,90.40
2017-12-05T00:25:05.613Z,92.30
2017-12-05T00:26:05.641Z,93.40
2017-12-05T00:27:05.557Z,93.80
2017-12-05T00:28:05.551Z,92.20
2017-12-05T00:29:05.500Z,96.00
2017-12-05T00:30:05.562Z,98.40
2017-12-05T00:31:05.447Z,95.60
2017-12-05T00:32:05.473Z,93.20
2017-12-05T00:33:05.395Z,98.90
2017-12-05T00:34:05.502Z,106.40
2017-12-05T00:35:05.347Z,101.30
2017-12-05T00:36:05.320Z,100.40
2017-12-05T00:37:05.290Z,100.50
2017-12-05T00:38:05.302Z,98.80
2017-12-05T00:39:05.240Z,108.50
2017-12-05T00:40:05.318Z,111.00
2017-12-05T00:41:05.182Z,121.60
2017-12-05T00:42:06.248Z,114.70
2017-12-05T00:43:05.136Z,117.10
2017-12-05T00:44:05.140Z,115.70
2017-12-05T00:45:05.073Z,121.30
2017-12-05T00:46:05.151Z,125.20
2017-12-05T00:47:05.024Z,120.90
2017-12-05T00:48:05.058Z,128.70
2017-12-05T00:49:05.065Z,111.40
2017-12-05T00:50:04.951Z,114.80
2017-12-05T00:51:04.972Z,114.20
2017-12-05T00:52:04.887Z,110.30
2017-12-05T00:53:04.884Z,114.30
2017-12-05T00:54:04.845Z,116.80
2017-12-05T00:55:04.804Z,118.60
2017-12-05T00:56:04.799Z,124.00
2017-12-05T00:57:04.757Z,124.20
2017-12-05T00:58:04.813Z,118.70
2017-12-05T00:59:04.697Z,125.40
2017-12-05T01:00:04.722Z,122.80
2017-12-05T01:01:04.651Z,133.40
2017-12-05T01:02:04.740Z,127.80
2017-12-05T01:03:04.593Z,129.20
2017-12-05T01:04:04.642Z,124.90
2017-12-05T01:05:04.658Z,125.60
2017-12-05T01:06:04.533Z,128.30
2017-12-05T01:07:04.560Z,122.60
2017-12-05T01:08:04.468Z,127.50
2017-12-05T01:09:04.469Z,125.00
2017-12-05T01:10:04.408Z,123.70
2017-12-05T01:11:04.479Z,123.50
2017-12-05T01:12:04.349Z,113.00
2017-12-05T01:13:04.393Z,108.20
2017-12-05T01:14:04.302Z,107.40
2017-12-05T01:15:04.304Z,110.80
2017-12-05T01:16:04.240Z,105.80
2017-12-05T01:17:04.319Z,98.50
2017-12-05T01:18:04.188Z,109.70
2017-12-05T01:19:04.166Z,106.10
2017-12-05T01:20:04.140Z,109.10
2017-12-05T01:21:04.139Z,107.10
2017-12-05T01:22:04.096Z,101.50
2017-12-05T01:23:04.154Z,102.30
2017-12-05T01:24:04.027Z,100.10
2017-12-05T01:25:04.008Z,110.60
2017-12-05T01:26:04.066Z,102.30
2017-12-05T01:27:03.949Z,102.90
2017-12-05T01:28:03.976Z,93.20
2017-12-05T01:29:03.889Z,102.40
2017-12-05T01:30:03.988Z,94.70
2017-12-05T01:31:03.843Z,91.50
2017-12-05T01:32:04.920Z,95.40
2017-12-05T01:33:03.902Z,80.80
2017-12-05T01:34:03.766Z,93.10
2017-12-05T01:35:03.820Z,91.40
2017-12-05T01:36:03.711Z,95.40
2017-12-05T01:37:03.717Z,89.40
2017-12-05T01:38:03.659Z,96.80
2017-12-05T01:39:03.631Z,95.60
2017-12-05T01:40:03.634Z,87.60
2017-12-05T01:41:03.577Z,82.40
2017-12-05T01:42:03.651Z,92.50
2017-12-05T01:43:03.517Z,94.50
2017-12-05T01:44:03.563Z,97.40
2017-12-05T01:45:03.463Z,102.00
2017-12-05T01:46:03.467Z,97.80
2017-12-05T01:47:03.415Z,100.10
2017-12-05T01:48:03.483Z,107.90
2017-12-05T01:49:03.383Z,109.90
2017-12-05T01:50:03.335Z,97.30
2017-12-05T01:51:03.398Z,107.30
2017-12-05T01:52:03.282Z,91.50
2017-12-05T01:53:03.307Z,92.80
2017-12-05T01:54:03.220Z,85.90
2017-12-05T01:55:03.201Z,81.30
2017-12-05T01:56:03.219Z,78.30
2017-12-05T01:57:03.146Z,89.10
2017-12-05T01:58:03.133Z,79.30
2017-12-05T01:59:03.141Z,87.20
2017-12-05T02:00:03.060Z,74.20
2017-12-05T02:01:03.155Z,81.60
2017-12-05T02:02:03.017Z,83.60
2017-12-05T02:03:03.067Z,80.60
2017-12-05T02:04:02.953Z,83.00
2017-12-05T02:05:02.933Z,78.90
2017-12-05T02:06:02.982Z,84.10
2017-12-05T02:07:02.870Z,91.00
2017-12-05T02:08:02.887Z,84.50
2017-12-05T02:09:02.894Z,79.20
2017-12-05T02:10:02.791Z,80.30
2017-12-05T02:11:02.802Z,81.50
2017-12-05T02:12:02.743Z,86.90
2017-12-05T02:13:02.816Z,84.10
2017-12-05T02:14:02.691Z,87.00
2017-12-05T02:15:02.658Z,92.90
2017-12-05T02:16:02.732Z,83.80
2017-12-05T02:17:02.626Z,83.20
2017-12-05T02:18:02.643Z,81.40
2017-12-05T02:19:02.558Z,89.10
2017-12-05T02:20:02.576Z,80.70
2017-12-05T02:21:02.494Z,86.20
2017-12-05T02:22:02.562Z,83.80
2017-12-05T02:23:02.449Z,75.50
2017-12-05T02:24:02.476Z,82.80
2017-12-05T02:25:02.478Z,85.60
2017-12-05T02:26:02.361Z,74.60
2017-12-05T02:27:02.387Z,86.50
2017-12-05T02:28:02.303Z,80.20
2017-12-05T02:29:02.297Z,83.50
2017-12-05T02:30:02.258Z,80.50
2017-12-05T02:31:02.320Z,80.10
2017-12-05T02:32:02.198Z,83.80
2017-12-05T02:33:02.226Z,75.20
2017-12-05T02:34:02.149Z,68.20
2017-12-05T02:35:02.230Z,71.20
2017-12-05T02:36:02.092Z,73.50
2017-12-05T02:37:02.144Z,74.60
2017-12-05T02:38:02.044Z,73.20
2017-12-05T02:39:02.012Z,77.20
2017-12-05T02:40:01.995Z,70.90
2017-12-05T02:41:02.069Z,74.20
2017-12-05T02:42:01.938Z,66.90
2017-12-05T02:43:01.975Z,63.80
2017-12-05T02:44:01.882Z,76.30
2017-12-05T02:45:01.855Z,68.40
2017-12-05T02:46:01.935Z,67.70
2017-12-05T02:47:01.796Z,67.90
2017-12-05T02:48:01.803Z,63.80
2017-12-05T02:49:01.742Z,62.80
2017-12-05T02:50:01.731Z,68.50
2017-12-05T02:51:01.713Z,70.90
2017-12-05T02:52:01.666Z,63.90
2017-12-05T02:53:01.729Z,71.60
2017-12-05T02:54:01.614Z,69.00
2017-12-05T02:55:01.579Z,67.10
2017-12-05T02:56:01.555Z,67.70
2017-12-05T02:57:01.551Z,69.00
2017-12-05T02:58:01.504Z,77.40
2017-12-05T02:59:01.560Z,64.80
2017-12-05T03:00:01.454Z,67.10
2017-12-05T03:01:01.471Z,68.40
2017-12-05T03:02:01.392Z,67.90
2017-12-05T03:03:01.486Z,73.90
2017-12-05T03:04:01.340Z,65.80
2017-12-05T03:05:01.316Z,70.20
2017-12-05T03:06:01.330Z,65.50
2017-12-05T03:07:01.303Z,68.70
2017-12-05T03:08:01.231Z,72.30
2017-12-05T03:09:01.315Z,66.90
2017-12-05T03:10:01.181Z,65.10
2017-12-05T03:11:01.159Z,66.60
2017-12-05T03:12:01.125Z,68.40
2017-12-05T03:13:01.136Z,67.70
2017-12-05T03:14:01.073Z,63.70
2017-12-05T03:15:01.147Z,60.20
2017-12-05T03:16:01.025Z,70.90
2017-12-05T03:17:01.060Z,71.20
2017-12-05T03:18:00.966Z,70.20
2017-12-05T03:19:00.972Z,70.50
2017-12-05T03:20:00.912Z,68.30
2017-12-05T03:21:00.981Z,75.20
2017-12-05T03:22:00.855Z,67.10
2017-12-05T03:23:00.890Z,73.80
2017-12-05T03:24:00.901Z,72.70
2017-12-05T03:25:00.772Z,63.40
2017-12-05T03:26:00.805Z,68.90
2017-12-05T03:27:00.725Z,63.40
2017-12-05T03:28:00.713Z,68.60
2017-12-05T03:29:00.673Z,60.90
2017-12-05T03:30:00.640Z,62.20
2017-12-05T03:31:00.628Z,66.50
2017-12-05T03:32:00.588Z,71.30
2017-12-05T03:33:00.646Z,62.40
2017-12-05T03:34:00.534Z,64.10
2017-12-05T03:35:00.510Z,65.60
2017-12-05T03:36:00.560Z,64.40
2017-12-05T03:37:00.461Z,64.60
2017-12-05T03:38:00.471Z,63.20
2017-12-05T03:39:00.400Z,65.30
2017-12-05T03:40:00.371Z,66.10
2017-12-05T03:41:00.351Z,64.00
2017-12-05T03:42:00.393Z,63.40
2017-12-05T03:43:00.291Z,62.20
2017-12-05T03:44:00.305Z,61.10
2017-12-05T03:45:00.311Z,61.80
2017-12-05T03:46:00.213Z,64.60
2017-12-05T03:47:00.221Z,65.50
2017-12-05T03:48:00.154Z,59.70
2017-12-05T03:49:00.234Z,58.00
2017-12-05T03:50:00.102Z,65.10
2017-12-05T03:51:00.142Z,60.90
2017-12-05T03:52:00.058Z,56.20
2017-12-05T03:53:00.050Z,60.70
2017-12-05T03:53:59.999Z,60.50
2017-12-05T03:54:59.973Z,59.80
2017-12-05T03:55:59.947Z,58.30
2017-12-05T03:56:59.971Z,57.20
2017-12-05T03:57:59.902Z,58.90
2017-12-05T03:58:59.881Z,61.20
2017-12-05T03:59:59.845Z,59.30
2017-12-05T04:00:59.804Z,60.60
2017-12-05T04:01:59.901Z,54.90
2017-12-05T04:02:59.763Z,62.90
2017-12-05T04:03:59.810Z,60.60
2017-12-05T04:04:59.709Z,66.40
2017-12-05T04:05:59.721Z,57.50
2017-12-05T04:06:59.646Z,60.00
2017-12-05T04:07:59.727Z,60.90
2017-12-05T04:08:59.608Z,62.00
2017-12-05T04:09:59.638Z,63.30
2017-12-05T04:10:59.546Z,61.20
2017-12-05T04:11:59.509Z,63.50
2017-12-05T04:12:59.491Z,64.40
2017-12-05T04:13:59.562Z,60.60
2017-12-05T04:14:59.437Z,58.70
2017-12-05T04:15:59.474Z,58.60
2017-12-05T04:16:59.377Z,61.20
2017-12-05T04:17:59.365Z,54.90
2017-12-05T04:18:59.323Z,54.80
2017-12-05T04:20:00.317Z,60.30
2017-12-05T04:20:59.289Z,56.10
2017-12-05T04:21:59.307Z,60.70
2017-12-05T04:22:59.218Z,60.00
2017-12-05T04:23:59.197Z,55.80
2017-12-05T04:24:59.223Z,55.60
2017-12-05T04:25:59.135Z,53.20
2017-12-05T04:26:59.133Z,57.60
2017-12-05T04:27:59.091Z,52.60
2017-12-05T04:28:59.143Z,58.80
2017-12-05T04:29:59.029Z,51.70
2017-12-05T04:30:59.057Z,60.40
2017-12-05T04:31:58.978Z,61.70
2017-12-05T04:32:58.961Z,53.80
2017-12-05T04:33:58.921Z,59.90
2017-12-05T04:34:58.975Z,60.20
2017-12-05T04:35:58.867Z,65.10
2017-12-05T04:36:58.884Z,66.80
2017-12-05T04:37:58.813Z,64.30
2017-12-05T04:38:58.898Z,79.10
2017-12-05T04:39:58.758Z,75.90
2017-12-05T04:40:58.809Z,77.30
2017-12-05T04:41:58.713Z,73.00
2017-12-05T04:42:58.714Z,81.00
2017-12-05T04:43:58.650Z,79.70
2017-12-05T04:44:58.743Z,70.80
2017-12-05T04:45:58.617Z,81.60
2017-12-05T04:46:58.573Z,85.50
2017-12-05T04:47:58.544Z,82.20
2017-12-05T04:48:58.552Z,83.50
2017-12-05T04:49:58.498Z,88.40
2017-12-05T04:50:58.562Z,90.70
2017-12-05T04:51:58.447Z,86.80
2017-12-05T04:52:58.471Z,86.00
2017-12-05T04:53:58.389Z,87.10
2017-12-05T04:54:58.379Z,90.70
2017-12-05T04:55:58.328Z,86.60
2017-12-05T04:56:58.309Z,96.60
2017-12-05T04:57:58.276Z,95.40
2017-12-05T04:58:58.310Z,94.50
2017-12-05T04:59:58.224Z,92.50
2017-12-05T05:00:58.223Z,88.50
2017-12-05T05:01:58.172Z,91.10
2017-12-05T05:02:58.234Z,94.30
2017-12-05T05:03:58.123Z,79.00
2017-12-05T05:04:58.088Z,76.60
2017-12-05T05:05:58.144Z,84.90
2017-12-05T05:06:58.031Z,81.70
2017-12-05T05:07:58.052Z,83.40
2017-12-05T05:08:57.983Z,95.60
2017-12-05T05:09:57.959Z,83.70
2017-12-05T05:10:57.921Z,85.90
2017-12-05T05:11:57.976Z,82.00
2017-12-05T05:12:57.885Z,84.60
2017-12-05T05:13:57.886Z,86.10
2017-12-05T05:14:57.826Z,85.70
2017-12-05T05:15:57.795Z,94.40
2017-12-05T05:16:57.761Z,104.90
2017-12-05T05:17:57.810Z,94.80
2017-12-05T05:18:57.715Z,96.00
2017-12-05T05:19:57.717Z,92.70
2017-12-05T05:20:57.670Z,92.20
2017-12-05T05:21:57.623Z,93.80
2017-12-05T05:22:57.603Z,90.00
2017-12-05T05:23:57.640Z,103.40
2017-12-05T05:24:57.544Z,83.20
2017-12-05T05:25:57.562Z,88.50
2017-12-05T05:26:57.508Z,90.50
2017-12-05T05:27:57.474Z,84.20
2017-12-05T05:28:57.467Z,86.10
2017-12-05T05:29:57.444Z,96.40
2017-12-05T05:30:57.527Z,93.00
2017-12-05T05:31:57.359Z,97.10
2017-12-05T05:32:57.328Z,94.40
2017-12-05T05:33:57.303Z,93.60
2017-12-05T05:34:57.398Z,97.30
2017-12-05T05:35:57.245Z,94.20
2017-12-05T05:36:57.309Z,99.50
2017-12-05T05:37:57.198Z,99.50
2017-12-05T05:38:57.221Z,100.80
2017-12-05T05:39:57.139Z,107.00
2017-12-05T05:40:57.232Z,106.80
2017-12-05T05:41:57.092Z,100.20
2017-12-05T05:42:57.140Z,98.60
2017-12-05T05:43:57.030Z,96.50
2017-12-05T05:44:57.011Z,102.70
2017-12-05T05:45:56.985Z,94.60
2017-12-05T05:46:57.062Z,99.10
2017-12-05T05:47:56.920Z,97.30
2017-12-05T05:48:56.974Z,101.00
2017-12-05T05:49:56.878Z,96.10
2017-12-05T05:50:56.984Z,90.50
2017-12-05T05:51:56.820Z,88.70
2017-12-05T05:52:56.897Z,100.80
2017-12-05T05:53:56.759Z,102.70
2017-12-05T05:54:56.738Z,95.40
2017-12-05T05:55:56.707Z,101.20
2017-12-05T05:56:56.715Z,100.80
2017-12-05T05:57:56.657Z,96.50
2017-12-05T05:58:56.726Z,99.60
2017-12-05T05:59:56.600Z,107.30
2017-12-05T06:00:56.636Z,114.10
2017-12-05T06:01:56.542Z,106.00
2017-12-05T06:02:56.530Z,117.30
2017-12-05T06:03:56.500Z,113.90
2017-12-05T06:04:56.474Z,127.20
2017-12-05T06:05:56.439Z,117.00
2017-12-05T06:06:56.418Z,114.10
2017-12-05T06:07:56.389Z,124.70
2017-12-05T06:08:56.360Z,125.70
2017-12-05T06:09:56.336Z,121.30
2017-12-05T06:10:56.321Z,119.40
2017-12-05T06:11:56.278Z,120.40
2017-12-05T06:12:56.264Z,131.00
2017-12-05T06:13:56.227Z,125.30
2017-12-05T06:14:56.198Z,116.10
2017-12-05T06:15:56.172Z,146.00
2017-12-05T06:16:56.150Z,123.10
2017-12-05T06:17:56.117Z,118.40
2017-12-05T06:18:56.092Z,117.70
2017-12-05T06:19:56.063Z,124.80
2017-12-05T06:20:56.038Z,138.80
2017-12-05T06:21:56.010Z,119.30
2017-12-05T06:22:55.984Z,125.00
2017-12-05T06:23:55.956Z,126.70
2017-12-05T06:24:55.934Z,122.60
2017-12-05T06:25:55.907Z,124.80
2017-12-05T06:26:55.876Z,125.70
2017-12-05T06:27:55.846Z,127.00
2017-12-05T06:28:55.821Z,133.30
2017-12-05T06:29:55.799Z,123.10
2017-12-05T06:30:55.761Z,123.40
2017-12-05T06:31:56.740Z,117.90
2017-12-05T06:32:55.706Z,118.40
2017-12-05T06:33:55.693Z,126.20
2017-12-05T06:34:55.649Z,115.90
2017-12-05T06:35:55.636Z,123.30
2017-12-05T06:36:55.598Z,127.80
2017-12-05T06:37:55.579Z,123.00
2017-12-05T06:38:55.548Z,138.00
2017-12-05T06:39:55.519Z,122.90
2017-12-05T06:40:55.505Z,118.10
2017-12-05T06:41:55.461Z,128.10
2017-12-05T06:42:55.436Z,129.60
2017-12-05T06:43:55.418Z,119.00
2017-12-05T06:44:55.386Z,120.00
2017-12-05T06:45:55.352Z,121.10
2017-12-05T06:46:55.336Z,134.70
2017-12-05T06:47:55.299Z,137.90
2017-12-05T06:48:55.279Z,139.50
2017-12-05T06:49:55.251Z,144.90
2017-12-05T06:50:55.233Z,134.20
2017-12-05T06:51:55.192Z,140.30
2017-12-05T06:52:55.177Z,155.40
2017-12-05T06:53:55.138Z,157.80
2017-12-05T06:54:55.117Z,155.40
2017-12-05T06:55:55.099Z,158.00
2017-12-05T06:56:55.056Z,161.70
2017-12-05T06:57:55.040Z,153.80
2017-12-05T06:58:55.004Z,154.30
2017-12-05T06:59:55.988Z,165.00
2017-12-05T07:00:54.961Z,170.50
2017-12-05T07:01:54.924Z,178.20
2017-12-05T07:02:55.896Z,172.40
2017-12-05T07:03:54.875Z,176.20
2017-12-05T07:04:54.851Z,173.90
2017-12-05T07:05:54.823Z,171.80
2017-12-05T07:06:54.795Z,194.60
2017-12-05T07:07:54.774Z,183.80
2017-12-05T07:08:54.740Z,189.30
2017-12-05T07:09:54.714Z,183.00
2017-12-05T07:10:54.686Z,190.00
2017-12-05T07:11:55.653Z,172.40
2017-12-05T07:12:54.629Z,191.50
2017-12-05T07:13:54.609Z,178.00
2017-12-05T07:14:54.577Z,196.00
2017-12-05T07:15:54.551Z,183.60
2017-12-05T07:16:54.534Z,192.00
2017-12-05T07:17:54.501Z,180.80
2017-12-05T07:18:54.469Z,195.00
2017-12-05T07:19:54.438Z,175.40
2017-12-05T07:20:54.421Z,174.60
2017-12-05T07:21:54.388Z,189.30
2017-12-05T07:22:54.361Z,199.70
2017-12-05T07:23:54.328Z,167.20
2017-12-05T07:24:54.312Z,169.00
2017-12-05T07:25:54.285Z,169.60
2017-12-05T07:26:54.254Z,165.10
2017-12-05T07:27:54.232Z,182.10
2017-12-05T07:28:54.208Z,169.10
2017-12-05T07:29:54.172Z,176.90
2017-12-05T07:30:54.154Z,169.40
2017-12-05T07:31:54.115Z,168.60
2017-12-05T07:32:54.100Z,166.90
2017-12-05T07:33:54.065Z,172.80
2017-12-05T07:34:54.091Z,181.00
2017-12-05T07:35:54.006Z,182.70
2017-12-05T07:36:54.000Z,195.20
2017-12-05T07:37:53.954Z,185.30
2017-12-05T07:38:53.949Z,184.40
2017-12-05T07:39:53.903Z,185.20
2017-12-05T07:40:53.872Z,181.90
2017-12-05T07:41:53.841Z,207.70
2017-12-05T07:42:53.827Z,209.90
2017-12-05T07:43:53.788Z,203.10
2017-12-05T07:44:53.774Z,205.40
2017-12-05T07:45:53.738Z,199.30
2017-12-05T07:46:53.708Z,204.50
2017-12-05T07:47:53.685Z,199.90
2017-12-05T07:48:53.671Z,201.20
2017-12-05T07:49:53.630Z,202.50
2017-12-05T07:50:53.611Z,196.80
2017-12-05T07:51:53.581Z,197.40
2017-12-05T07:52:53.550Z,200.00
2017-12-05T07:53:53.530Z,187.00
2017-12-05T07:54:53.494Z,198.10
2017-12-05T07:55:53.475Z,212.70
2017-12-05T07:56:53.445Z,194.10
2017-12-05T07:57:53.428Z,191.60
2017-12-05T07:58:53.393Z,187.70
2017-12-05T07:59:53.369Z,198.50
2017-12-05T08:00:53.342Z,182.20
2017-12-05T08:01:53.341Z,186.00
2017-12-05T08:02:53.286Z,181.50
2017-12-05T08:03:53.260Z,190.10
2017-12-05T08:04:53.235Z,183.50
2017-12-05T08:05:53.199Z,205.70
2017-12-05T08:06:53.185Z,181.10
2017-12-05T08:07:53.144Z,190.10
2017-12-05T08:08:53.127Z,182.20
2017-12-05T08:09:53.089Z,181.10
2017-12-05T08:10:53.066Z,206.30
2017-12-05T08:11:54.037Z,187.60
2017-12-05T08:12:53.015Z,181.00
2017-12-05T08:13:52.986Z,186.10
2017-12-05T08:14:52.959Z,210.10
2017-12-05T08:15:52.928Z,185.90
2017-12-05T08:16:52.916Z,194.20
2017-12-05T08:17:52.890Z,190.50
2017-12-05T08:18:52.855Z,190.40
2017-12-05T08:19:52.836Z,191.70
2017-12-05T08:20:52.790Z,181.30
2017-12-05T08:21:52.771Z,187.80
2017-12-05T08:22:52.746Z,183.40
2017-12-05T08:23:52.718Z,186.00
2017-12-05T08:24:52.689Z,182.00
2017-12-05T08:25:52.665Z,184.40
2017-12-05T08:26:52.637Z,193.40
2017-12-05T08:27:52.614Z,182.00
2017-12-05T08:28:52.583Z,193.60
2017-12-05T08:29:52.554Z,197.40
2017-12-05T08:30:52.544Z,189.90
2017-12-05T08:31:52.500Z,177.60
2017-12-05T08:32:52.472Z,196.80
2017-12-05T08:33:52.458Z,179.00
2017-12-05T08:34:52.413Z,180.20
2017-12-05T08:35:52.402Z,175.30
2017-12-05T08:36:52.380Z,190.70
2017-12-05T08:37:52.349Z,185.40
2017-12-05T08:38:52.311Z,180.80
2017-12-05T08:39:52.296Z,178.60
2017-12-05T08:40:52.252Z,181.10
2017-12-05T08:41:53.236Z,175.90
2017-12-05T08:42:52.200Z,168.10
2017-12-05T08:43:52.184Z,177.20
2017-12-05T08:44:52.147Z,185.10
2017-12-05T08:45:52.126Z,187.30
2017-12-05T08:46:52.098Z,177.90
2017-12-05T08:47:52.070Z,175.40
2017-12-05T08:48:52.082Z,168.20
2017-12-05T08:49:52.015Z,173.30
2017-12-05T08:50:51.991Z,157.20
2017-12-05T08:51:51.960Z,160.80
2017-12-05T08:52:51.939Z,168.50
2017-12-05T08:53:51.904Z,178.40
2017-12-05T08:54:51.888Z,177.50
2017-12-05T08:55:51.851Z,162.70
2017-12-05T08:56:51.833Z,159.40
2017-12-05T08:57:51.797Z,167.90
2017-12-05T08:58:51.783Z,186.10
2017-12-05T08:59:51.744Z,175.20
2017-12-05T09:00:51.727Z,176.80
2017-12-05T09:01:51.687Z,172.90
2017-12-05T09:02:51.671Z,179.20
2017-12-05T09:03:51.642Z,171.00
2017-12-05T09:04:51.617Z,158.20
2017-12-05T09:05:51.591Z,164.10
2017-12-05T09:06:51.554Z,171.30
2017-12-05T09:07:51.539Z,164.30
2017-12-05T09:08:51.513Z,169.90
2017-12-05T09:09:51.485Z,192.40
2017-12-05T09:10:51.450Z,180.70
2017-12-05T09:11:51.420Z,167.00
2017-12-05T09:12:51.395Z,174.40
2017-12-05T09:13:51.375Z,188.10
2017-12-05T09:14:51.335Z,189.40
2017-12-05T09:15:51.317Z,182.10
2017-12-05T09:16:51.291Z,179.80
2017-12-05T09:17:51.272Z,176.30
2017-12-05T09:18:51.234Z,185.00
2017-12-05T09:19:51.210Z,173.50
2017-12-05T09:20:51.175Z,184.20
2017-12-05T09:21:52.155Z,166.90
2017-12-05T09:22:51.127Z,172.10
2017-12-05T09:23:51.108Z,170.90
2017-12-05T09:24:51.068Z,180.10
2017-12-05T09:25:51.043Z,173.30
2017-12-05T09:26:51.019Z,173.70
2017-12-05T09:27:50.999Z,169.80
2017-12-05T09:28:50.962Z,171.50
2017-12-05T09:29:50.947Z,171.10
2017-12-05T09:30:50.915Z,163.70
2017-12-05T09:31:50.886Z,164.10
2017-12-05T09:32:50.856Z,156.80
2017-12-05T09:33:50.835Z,170.60
2017-12-05T09:34:50.805Z,158.30
2017-12-05T09:35:50.787Z,164.50
2017-12-05T09:36:50.751Z,171.40
2017-12-05T09:37:50.744Z,163.30
2017-12-05T09:38:50.695Z,150.80
2017-12-05T09:39:50.682Z,152.10
2017-12-05T09:40:50.642Z,159.10
2017-12-05T09:41:50.625Z,161.70
2017-12-05T09:42:50.586Z,158.90
2017-12-05T09:43:50.564Z,155.90
2017-12-05T09:44:50.546Z,163.70
2017-12-05T09:45:50.517Z,141.60
2017-12-05T09:46:50.487Z,156.50
2017-12-05T09:47:50.453Z,146.90
2017-12-05T09:48:50.432Z,162.70
2017-12-05T09:49:50.411Z,156.40
2017-12-05T09:50:50.374Z,155.00
2017-12-05T09:51:51.353Z,168.00
2017-12-05T09:52:50.328Z,165.40
2017-12-05T09:53:50.299Z,177.80
2017-12-05T09:54:50.278Z,174.50
2017-12-05T09:55:50.251Z,146.70
2017-12-05T09:56:50.226Z,138.00
2017-12-05T09:57:50.184Z,147.90
2017-12-05T09:58:50.169Z,149.50
2017-12-05T09:59:50.143Z,153.80
2017-12-05T10:00:50.116Z,155.70
2017-12-05T10:01:51.086Z,149.50
2017-12-05T10:02:50.050Z,142.20
2017-12-05T10:03:50.039Z,149.40
2017-12-05T10:04:49.998Z,140.40
2017-12-05T10:05:49.989Z,149.10
2017-12-05T10:06:49.951Z,148.70
2017-12-05T10:07:49.931Z,154.80
2017-12-05T10:08:49.894Z,148.70
2017-12-05T10:09:49.873Z,155.70
2017-12-05T10:10:49.841Z,152.50
2017-12-05T10:11:49.812Z,139.50
2017-12-05T10:12:49.786Z,141.90
2017-12-05T10:13:49.771Z,148.50
2017-12-05T10:14:49.733Z,135.00
2017-12-05T10:15:49.706Z,142.60
2017-12-05T10:16:49.681Z,153.10
2017-12-05T10:17:49.650Z,142.50
2017-12-05T10:18:49.625Z,136.20
2017-12-05T10:19:49.600Z,143.20
2017-12-05T10:20:49.580Z,131.70
2017-12-05T10:21:49.549Z,136.80
2017-12-05T10:22:49.519Z,139.10
2017-12-05T10:23:49.495Z,134.90
2017-12-05T10:24:49.462Z,144.80
2017-12-05T10:25:49.437Z,139.10
2017-12-05T10:26:49.414Z,148.90
2017-12-05T10:27:49.410Z,144.50
2017-12-05T10:28:49.353Z,140.20
2017-12-05T10:29:49.327Z,140.00
2017-12-05T10:30:49.307Z,135.70
2017-12-05T10:31:50.274Z,121.90
2017-12-05T10:32:49.253Z,137.30
2017-12-05T10:33:49.232Z,127.00
2017-12-05T10:34:49.197Z,138.60
2017-12-05T10:35:49.179Z,137.00
2017-12-05T10:36:49.151Z,135.90
2017-12-05T10:37:49.129Z,131.10
2017-12-05T10:38:49.087Z,129.80
2017-12-05T10:39:49.067Z,132.60
2017-12-05T10:40:49.031Z,122.20
2017-12-05T10:41:49.008Z,124.00
2017-12-05T10:42:48.985Z,129.10
2017-12-05T10:43:48.957Z,128.40
2017-12-05T10:44:48.936Z,118.70
2017-12-05T10:45:48.905Z,119.30
2017-12-05T10:46:48.875Z,112.40
2017-12-05T10:47:48.845Z,103.70
2017-12-05T10:48:48.830Z,114.10
2017-12-05T10:49:48.786Z,120.90
2017-12-05T10:50:48.774Z,116.80
2017-12-05T10:51:48.736Z,113.50
2017-12-05T10:52:48.715Z,111.30
2017-12-05T10:53:48.685Z,116.50
2017-12-05T10:54:48.667Z,116.40
2017-12-05T10:55:48.645Z,118.80
2017-12-05T10:56:48.617Z,101.70
2017-12-05T10:57:48.581Z,114.70
2017-12-05T10:58:48.554Z,99.70
2017-12-05T10:59:48.531Z,101.90
2017-12-05T11:00:48.498Z,104.00
2017-12-05T11:01:49.474Z,101.30
2017-12-05T11:02:48.440Z,95.20
2017-12-05T11:03:48.425Z,96.60
2017-12-05T11:04:48.407Z,100.60
2017-12-05T11:05:48.372Z,103.10
2017-12-05T11:06:48.347Z,95.60
2017-12-05T11:07:48.382Z,99.80
2017-12-05T11:08:48.286Z,93.70
2017-12-05T11:09:48.254Z,102.00
2017-12-05T11:10:48.234Z,97.30
2017-12-05T11:11:48.213Z,96.20
2017-12-05T11:12:48.175Z,96.10
2017-12-05T11:13:48.162Z,92.90
2017-12-05T11:14:48.127Z,95.20
2017-12-05T11:15:48.107Z,89.10
2017-12-05T11:16:48.085Z,90.10
2017-12-05T11:17:48.068Z,95.70
2017-12-05T11:18:48.011Z,98.10
2017-12-05T11:19:47.998Z,95.60
2017-12-05T11:20:47.962Z,97.40
2017-12-05T11:21:47.933Z,100.60
2017-12-05T11:22:47.928Z,90.30
2017-12-05T11:23:47.886Z,93.30
2017-12-05T11:24:47.868Z,86.70
2017-12-05T11:25:47.828Z,91.80
2017-12-05T11:26:47.811Z,90.80
2017-12-05T11:27:47.786Z,85.20
2017-12-05T11:28:47.752Z,85.90
2017-12-05T11:29:47.728Z,89.40
2017-12-05T11:30:47.736Z,91.70
2017-12-05T11:31:48.677Z,94.50
2017-12-05T11:32:47.643Z,91.90
2017-12-05T11:33:47.626Z,85.60
2017-12-05T11:34:47.593Z,84.10
2017-12-05T11:35:47.570Z,90.80
2017-12-05T11:36:47.533Z,84.10
2017-12-05T11:37:47.518Z,86.30
2017-12-05T11:38:47.483Z,84.20
2017-12-05T11:39:47.466Z,83.70
2017-12-05T11:40:47.432Z,81.30
2017-12-05T11:41:47.407Z,77.10
2017-12-05T11:42:47.382Z,72.70
2017-12-05T11:43:47.351Z,77.90
2017-12-05T11:44:47.336Z,77.90
2017-12-05T11:45:47.304Z,71.70
2017-12-05T11:46:47.267Z,75.30
2017-12-05T11:47:47.245Z,75.40
2017-12-05T11:48:47.218Z,76.10
2017-12-05T11:49:48.186Z,80.50
2017-12-05T11:50:47.165Z,73.40
2017-12-05T11:51:47.141Z,73.30
2017-12-05T11:52:47.114Z,73.00
2017-12-05T11:53:47.084Z,72.60
2017-12-05T11:54:47.056Z,73.20
2017-12-05T11:55:47.038Z,74.90
2017-12-05T11:56:47.004Z,75.20
2017-12-05T11:57:46.974Z,76.00
2017-12-05T11:58:46.955Z,73.90
2017-12-05T11:59:46.917Z,73.70
2017-12-05T12:00:46.901Z,69.80
2017-12-05T12:01:46.871Z,72.30
2017-12-05T12:02:46.844Z,71.40
2017-12-05T12:03:46.816Z,76.20
2017-12-05T12:04:46.788Z,74.50
2017-12-05T12:05:46.763Z,68.70
2017-12-05T12:06:46.733Z,71.40
2017-12-05T12:07:46.704Z,73.50
2017-12-05T12:08:46.688Z,73.60
2017-12-05T12:09:46.654Z,71.00
2017-12-05T12:10:46.630Z,72.40
2017-12-05T12:11:46.596Z,68.00
2017-12-05T12:12:46.595Z,64.70
2017-12-05T12:13:46.553Z,61.60
2017-12-05T12:14:46.536Z,66.10
2017-12-05T12:15:46.504Z,67.90
2017-12-05T12:16:46.463Z,67.20
2017-12-05T12:17:46.453Z,68.60
2017-12-05T12:18:46.419Z,66.20
2017-12-05T12:19:46.390Z,69.70
2017-12-05T12:20:46.371Z,63.60
2017-12-05T12:21:46.339Z,68.80
2017-12-05T12:22:46.314Z,67.00
2017-12-05T12:23:46.283Z,64.10
2017-12-05T12:24:46.262Z,68.10
2017-12-05T12:25:46.234Z,65.00
2017-12-05T12:26:46.199Z,69.80
2017-12-05T12:27:46.182Z,63.60
2017-12-05T12:28:46.152Z,61.70
2017-12-05T12:29:46.152Z,66.50
2017-12-05T12:30:46.087Z,67.80
2017-12-05T12:31:46.071Z,68.50
2017-12-05T12:32:46.055Z,66.00
2017-12-05T12:33:46.011Z,63.00
2017-12-05T12:34:45.987Z,62.30
2017-12-05T12:35:45.960Z,59.40
2017-12-05T12:36:45.937Z,59.60
2017-12-05T12:37:45.907Z,64.10
2017-12-05T12:38:45.881Z,59.40
2017-12-05T12:39:45.861Z,59.10